Pagrindinis puslapis
METAR-TAF:

METAR-TAF

Oro uostai :

Winston Field

Snyder, Teksasas, Jungtinės Amerikos Valstijos

platuma: 32-41-36N, ilguma: 100-57-01W, Aukštis: 741 m

Dabartinis oras

Ataskaita buvo paskelbta 17 minutes, ne 03:55 UTC
Vėjas 14 kt iš Šiaurės Rytų su gūsio iki 19 kt
Temperatūra 20°C
Drėgmė 64%
Slėgis 1020 hPa
Matomumas: 16.1 km
Su prošvaistėmis ne aukštis 5000 ft
Su prošvaistėmis ne aukštis 7000 ft
Su prošvaistėmis ne aukštis 7500 ft

METAR: KSNK 220355Z AUTO 05014G19KT 10SM BKN050 BKN070 BKN075 20/13 A3011 RMK AO2 T02010131

Laikas: 23:12 (04:12 UTC)


TAF: trūkstamas

Orai ataskaitas ir orų prognozės (METAR, TAF).

turimą stotys yra geltonos ir raudonos taškus žemėlapyje.

Perkelti pele per norėdami pamatyti stoties vardą.

Tada spustelėkite, norėdami matyti oro stebėjimo ir prognozės.

Norėdami pakeisti žemėlapį: spustelėkite ant žalios mygtukų su juodo kryžiaus žemyn,; žalią mygtuką su brūkšneliu, jei norite nutolinti; arba žalių rodyklių gretimoms žemėlapius.


METAR-TAF: